Terminal Aerodrome Forecast
Issued by NWS

Home | Current Version | Previous Version | Text Only | Print | Product List | Glossary On
Versions: 1 2 3 4 5 6 7 8 9 10 11 12 13 14 15 16 17
000
FTUS42 KMLB 031733
TAFISM
TAF
KISM 031733Z 0318/0418 27008KT P6SM SCT035 SCT250
     FM031900 29008KT P6SM VCTS SCT030CB BKN050 BKN250
     FM040000 28005KT P6SM VCSH SCT030 SCT050 BKN250
     FM040300 27003KT P6SM SCT050 SCT250=

USA.gov is the U.S. government's official web portal to all federal, state and local government web resources and services.